createdAt,value
2022-12-17T00:01:48.260Z,-2.67
2022-12-17T00:04:33.844Z,-2.65
2022-12-17T00:07:19.777Z,-2.65
2022-12-17T00:10:16.890Z,-2.67
2022-12-17T00:13:05.138Z,-2.67
2022-12-17T00:15:51.023Z,-2.65
2022-12-17T00:18:38.109Z,-2.67
2022-12-17T00:21:24.363Z,-2.67
2022-12-17T00:24:10.352Z,-2.64
2022-12-17T00:26:56.730Z,-2.64
2022-12-17T00:29:42.758Z,-2.62
2022-12-17T00:32:28.768Z,-2.61
2022-12-17T00:35:15.899Z,-2.61
2022-12-17T00:38:04.350Z,-2.60
2022-12-17T00:40:50.208Z,-2.58
2022-12-17T00:43:36.188Z,-2.57
2022-12-17T00:46:22.391Z,-2.57
2022-12-17T00:49:07.639Z,-2.56
2022-12-17T00:51:54.698Z,-2.54
2022-12-17T00:54:40.350Z,-2.53
2022-12-17T00:57:25.940Z,-2.51
2022-12-17T01:00:11.212Z,-2.50
2022-12-17T01:02:57.257Z,-2.50
2022-12-17T01:05:43.099Z,-2.50
2022-12-17T01:08:31.978Z,-2.51
2022-12-17T01:11:18.870Z,-2.50
2022-12-17T01:14:04.762Z,-2.51
2022-12-17T01:16:50.691Z,-2.51
2022-12-17T01:19:36.628Z,-2.51
2022-12-17T01:22:18.658Z,-2.49
2022-12-17T01:25:05.446Z,-2.49
2022-12-17T01:27:51.199Z,-2.49
2022-12-17T01:30:37.748Z,-2.47
2022-12-17T01:33:25.714Z,-2.51
2022-12-17T01:36:13.613Z,-2.47
2022-12-17T01:38:59.405Z,-2.51
2022-12-17T01:41:46.579Z,-2.50
2022-12-17T01:45:11.709Z,-2.54
2022-12-17T01:47:59.755Z,-2.54
2022-12-17T01:50:48.047Z,-2.57
2022-12-17T01:53:34.539Z,-2.54
2022-12-17T01:56:20.729Z,-2.58
2022-12-17T01:59:07.669Z,-2.60
2022-12-17T02:01:53.651Z,-2.61
2022-12-17T02:04:39.651Z,-2.60
2022-12-17T02:07:35.224Z,-2.62
2022-12-17T02:10:27.240Z,-2.67
2022-12-17T02:13:15.959Z,-2.67
2022-12-17T02:16:06.706Z,-2.68
2022-12-17T02:18:55.929Z,-2.71
2022-12-17T02:21:42.052Z,-2.74
2022-12-17T02:24:40.192Z,-2.77
2022-12-17T02:27:28.604Z,-2.79
2022-12-17T02:30:15.932Z,-2.87
2022-12-17T02:33:03.487Z,-2.88
2022-12-17T02:35:56.813Z,-2.92
2022-12-17T02:38:44.347Z,-2.95
2022-12-17T02:41:34.292Z,-2.96
2022-12-17T02:44:21.290Z,-2.98
2022-12-17T02:47:07.387Z,-2.99
2022-12-17T02:49:53.294Z,-3.00
2022-12-17T02:52:39.619Z,-3.02
2022-12-17T02:55:37.395Z,-3.03
2022-12-17T02:58:22.782Z,-3.06
2022-12-17T03:01:09.953Z,-3.08
2022-12-17T03:03:55.908Z,-3.08
2022-12-17T03:06:41.717Z,-3.06
2022-12-17T03:09:27.308Z,-3.09
2022-12-17T03:12:13.660Z,-3.10
2022-12-17T03:14:59.607Z,-3.15
2022-12-17T03:17:47.601Z,-3.13
2022-12-17T03:20:33.147Z,-3.19
2022-12-17T03:23:22.382Z,-3.20
2022-12-17T03:26:08.388Z,-3.20
2022-12-17T03:28:54.158Z,-3.29
2022-12-17T03:31:39.883Z,-3.32
2022-12-17T03:34:32.623Z,-3.50
2022-12-17T03:37:18.473Z,-3.49
2022-12-17T03:40:04.291Z,-3.50
2022-12-17T03:42:49.616Z,-3.50
2022-12-17T03:45:35.659Z,-3.49
2022-12-17T03:48:25.615Z,-3.47
2022-12-17T03:51:13.236Z,-3.53
2022-12-17T03:53:59.172Z,-3.57
2022-12-17T03:56:45.080Z,-3.61
2022-12-17T03:59:30.941Z,-3.60
2022-12-17T04:02:16.997Z,-3.60
2022-12-17T04:05:03.045Z,-3.58
2022-12-17T04:07:50.116Z,-3.60
2022-12-17T04:10:35.996Z,-3.60
2022-12-17T04:13:22.022Z,-3.57
2022-12-17T04:16:07.975Z,-3.57
2022-12-17T04:18:53.830Z,-3.58
2022-12-17T04:21:39.902Z,-3.58
2022-12-17T04:24:27.130Z,-3.63
2022-12-17T04:27:12.821Z,-3.64
2022-12-17T04:29:58.083Z,-3.64
2022-12-17T04:32:43.834Z,-3.61
2022-12-17T04:35:29.503Z,-3.58
2022-12-17T04:38:15.389Z,-3.58
2022-12-17T04:41:02.639Z,-3.57
2022-12-17T04:43:48.444Z,-3.56
2022-12-17T04:46:34.428Z,-3.50
2022-12-17T04:49:19.943Z,-3.49
2022-12-17T04:52:05.685Z,-3.47
2022-12-17T04:54:51.561Z,-3.44
2022-12-17T04:57:38.749Z,-3.42
2022-12-17T05:00:25.744Z,-3.40
2022-12-17T05:03:11.431Z,-3.37
2022-12-17T05:05:57.427Z,-3.40
2022-12-17T05:08:43.409Z,-3.35
2022-12-17T05:11:29.003Z,-3.35
2022-12-17T05:14:15.798Z,-3.32
2022-12-17T05:17:01.658Z,-3.29
2022-12-17T05:19:47.431Z,-3.27
2022-12-17T05:22:33.077Z,-3.24
2022-12-17T05:25:18.906Z,-3.23
2022-12-17T05:28:04.809Z,-3.22
2022-12-17T05:31:00.427Z,-3.19
2022-12-17T05:33:46.306Z,-3.19
2022-12-17T05:36:32.195Z,-3.17
2022-12-17T05:39:17.935Z,-3.19
2022-12-17T05:42:03.333Z,-3.16
2022-12-17T05:44:48.923Z,-3.15
2022-12-17T05:47:35.785Z,-3.15
2022-12-17T05:50:21.280Z,-3.09
2022-12-17T05:53:07.022Z,-3.05
2022-12-17T05:55:52.933Z,-3.08
2022-12-17T05:58:38.406Z,-3.05
2022-12-17T06:01:24.684Z,-3.05
2022-12-17T06:04:11.852Z,-3.05
2022-12-17T06:06:57.615Z,-3.00
2022-12-17T06:09:43.532Z,-3.02
2022-12-17T06:12:29.329Z,-2.96
2022-12-17T06:15:15.258Z,-2.95
2022-12-17T06:18:00.957Z,-2.98
2022-12-17T06:20:48.076Z,-2.95
2022-12-17T06:23:34.323Z,-2.96
2022-12-17T06:26:19.998Z,-2.96
2022-12-17T06:29:05.880Z,-2.91
2022-12-17T06:31:51.633Z,-2.89
2022-12-17T06:34:49.085Z,-2.91
2022-12-17T06:37:36.304Z,-2.91
2022-12-17T06:40:22.708Z,-2.92
2022-12-17T06:43:11.955Z,-2.89
2022-12-17T06:45:57.838Z,-2.89
2022-12-17T06:48:43.771Z,-2.87
2022-12-17T06:51:29.600Z,-2.87
2022-12-17T06:54:16.836Z,-2.87
2022-12-17T06:57:02.054Z,-2.85
2022-12-17T06:59:47.969Z,-2.82
2022-12-17T07:02:33.795Z,-2.84
2022-12-17T07:05:19.374Z,-2.84
2022-12-17T07:08:05.228Z,-2.82
2022-12-17T07:10:52.211Z,-2.81
2022-12-17T07:13:38.475Z,-2.79
2022-12-17T07:16:24.745Z,-2.79
2022-12-17T07:19:09.299Z,-2.77
2022-12-17T07:21:54.671Z,-2.75
2022-12-17T07:24:45.910Z,-2.75
2022-12-17T07:27:32.949Z,-2.70
2022-12-17T07:30:18.783Z,-2.68
2022-12-17T07:33:04.634Z,-2.65
2022-12-17T07:35:50.039Z,-2.61
2022-12-17T07:38:35.864Z,-2.60
2022-12-17T07:41:21.550Z,-2.60
2022-12-17T07:44:08.320Z,-2.61
2022-12-17T07:46:54.233Z,-2.62
2022-12-17T07:49:39.652Z,-2.61
2022-12-17T07:52:25.495Z,-2.60
2022-12-17T07:55:15.468Z,-2.57
2022-12-17T07:58:03.988Z,-2.58
2022-12-17T08:00:51.508Z,-2.58
2022-12-17T08:03:37.763Z,-2.56
2022-12-17T08:06:23.952Z,-2.58
2022-12-17T08:09:09.949Z,-2.54
2022-12-17T08:11:55.526Z,-2.56
2022-12-17T08:14:41.212Z,-2.57
2022-12-17T08:17:28.188Z,-2.57
2022-12-17T08:20:14.115Z,-2.57
2022-12-17T08:22:59.911Z,-2.61
2022-12-17T08:25:45.499Z,-2.60
2022-12-17T08:28:50.255Z,-2.57
2022-12-17T08:31:36.897Z,-2.56
2022-12-17T08:34:24.037Z,-2.53
2022-12-17T08:37:09.580Z,-2.43
2022-12-17T08:39:55.497Z,-2.39
2022-12-17T08:42:41.372Z,-2.33
2022-12-17T08:45:27.761Z,-2.28
2022-12-17T08:48:20.957Z,-2.22
2022-12-17T08:51:08.156Z,-2.22
2022-12-17T08:53:56.194Z,-2.17
2022-12-17T08:56:53.042Z,-2.20
2022-12-17T08:59:39.920Z,-2.22
2022-12-17T09:02:28.392Z,-2.23
2022-12-17T09:05:14.389Z,-2.23
2022-12-17T09:08:01.607Z,-2.28
2022-12-17T09:10:47.475Z,-2.29
2022-12-17T09:13:32.886Z,-2.33
2022-12-17T09:16:18.412Z,-2.32
2022-12-17T09:19:04.376Z,-2.30
2022-12-17T09:21:50.679Z,-2.23
2022-12-17T09:24:37.828Z,-2.22
2022-12-17T09:27:23.841Z,-2.14
2022-12-17T09:30:05.845Z,-2.12
2022-12-17T09:32:51.747Z,-2.07
2022-12-17T09:35:37.403Z,-2.07
2022-12-17T09:38:23.034Z,-2.00
2022-12-17T09:41:10.534Z,-1.98
2022-12-17T09:44:03.089Z,-2.02
2022-12-17T09:46:52.995Z,-2.05
2022-12-17T09:49:40.311Z,-2.06
2022-12-17T09:52:36.934Z,-2.09
2022-12-17T09:55:32.618Z,-2.12
2022-12-17T09:58:20.271Z,-2.12
2022-12-17T10:01:06.197Z,-2.12
2022-12-17T10:03:53.155Z,-2.12
2022-12-17T10:06:43.491Z,-2.13
2022-12-17T10:09:30.956Z,-2.20
2022-12-17T10:12:14.854Z,-2.22
2022-12-17T10:15:01.960Z,-2.14
2022-12-17T10:17:47.567Z,-2.10
2022-12-17T10:20:39.960Z,-2.07
2022-12-17T10:23:25.229Z,-2.05
2022-12-17T10:26:12.027Z,-2.03
2022-12-17T10:28:57.718Z,-2.02
2022-12-17T10:31:53.530Z,-1.95
2022-12-17T10:34:39.922Z,-1.92
2022-12-17T10:37:37.276Z,-1.89
2022-12-17T10:40:34.158Z,-1.82
2022-12-17T10:43:19.545Z,-1.82
2022-12-17T10:46:12.829Z,-1.78
2022-12-17T10:48:59.745Z,-1.81
2022-12-17T10:51:49.533Z,-1.81
2022-12-17T10:54:46.937Z,-1.82
2022-12-17T10:57:42.158Z,-1.81
2022-12-17T11:00:45.712Z,-1.83
2022-12-17T11:03:44.441Z,-1.82
2022-12-17T11:06:34.224Z,-1.93
2022-12-17T11:09:25.208Z,-2.02
2022-12-17T11:12:10.999Z,-2.03
2022-12-17T11:15:04.030Z,-2.09
2022-12-17T11:17:49.837Z,-2.16
2022-12-17T11:20:41.400Z,-2.19
2022-12-17T11:23:33.078Z,-2.28
2022-12-17T11:26:22.029Z,-2.39
2022-12-17T11:29:07.518Z,-2.46
2022-12-17T11:32:07.347Z,-2.49
2022-12-17T11:35:07.009Z,-2.44
2022-12-17T11:37:57.030Z,-2.43
2022-12-17T11:40:49.473Z,-2.46
2022-12-17T11:43:39.049Z,-2.43
2022-12-17T11:46:34.048Z,-2.37
2022-12-17T11:49:24.020Z,-2.28
2022-12-17T11:52:12.579Z,-2.25
2022-12-17T11:55:02.211Z,-2.16
2022-12-17T11:57:56.399Z,-2.16
2022-12-17T12:00:42.048Z,-2.12
2022-12-17T12:03:38.752Z,-2.10
2022-12-17T12:06:32.571Z,-2.12
2022-12-17T12:09:25.135Z,-2.10
2022-12-17T12:12:15.974Z,-2.12
2022-12-17T12:15:08.981Z,-2.12
2022-12-17T12:18:00.270Z,-2.12
2022-12-17T12:20:57.968Z,-2.09
2022-12-17T12:23:48.293Z,-2.07
2022-12-17T12:26:36.170Z,-2.13
2022-12-17T12:29:28.471Z,-2.13
2022-12-17T12:32:17.192Z,-2.13
2022-12-17T12:35:03.939Z,-2.19
2022-12-17T12:37:50.302Z,-2.17
2022-12-17T12:40:42.461Z,-2.20
2022-12-17T12:43:33.783Z,-2.17
2022-12-17T12:46:23.128Z,-2.17
2022-12-17T12:49:15.028Z,-2.22
2022-12-17T12:52:00.767Z,-2.22
2022-12-17T12:54:49.144Z,-2.22
2022-12-17T12:57:49.087Z,-2.20
2022-12-17T13:00:49.746Z,-2.22
2022-12-17T13:03:43.837Z,-2.25
2022-12-17T13:06:14.178Z,-2.28
2022-12-17T13:08:43.060Z,-2.28
2022-12-17T13:11:22.652Z,-2.28
2022-12-17T13:13:56.753Z,-2.32
2022-12-17T13:16:32.871Z,-2.36
2022-12-17T13:19:06.482Z,-2.40
2022-12-17T13:21:36.076Z,-2.40
2022-12-17T13:24:11.841Z,-2.43
2022-12-17T13:26:44.969Z,-2.44
2022-12-17T13:29:22.499Z,-2.40
2022-12-17T13:32:02.221Z,-2.44
2022-12-17T13:34:39.966Z,-2.49
2022-12-17T13:37:14.847Z,-2.53
2022-12-17T13:39:51.348Z,-2.64
2022-12-17T13:42:23.272Z,-2.72
2022-12-17T13:44:51.590Z,-2.70
2022-12-17T13:47:22.030Z,-2.68
2022-12-17T13:50:31.522Z,-2.70
2022-12-17T13:52:43.784Z,-2.68
2022-12-17T13:55:19.511Z,-2.70
2022-12-17T13:57:48.622Z,-2.70
2022-12-17T14:00:22.603Z,-2.70
2022-12-17T14:03:01.519Z,-2.67
2022-12-17T14:05:33.360Z,-2.65
2022-12-17T14:08:04.661Z,-2.64
2022-12-17T14:10:33.326Z,-2.64
2022-12-17T14:13:06.296Z,-2.68
2022-12-17T14:15:34.364Z,-2.75
2022-12-17T14:18:03.288Z,-2.82
2022-12-17T14:20:32.734Z,-2.88
2022-12-17T14:23:04.185Z,-2.98
2022-12-17T14:25:36.487Z,-2.99
2022-12-17T14:28:06.248Z,-3.02
2022-12-17T14:30:42.955Z,-3.06
2022-12-17T14:33:27.667Z,-3.15
2022-12-17T14:35:56.989Z,-3.22
2022-12-17T14:38:37.924Z,-3.30
2022-12-17T14:41:33.133Z,-3.35
2022-12-17T14:44:02.127Z,-3.49
2022-12-17T14:46:31.159Z,-3.51
2022-12-17T14:49:03.795Z,-3.60
2022-12-17T14:51:34.089Z,-3.61
2022-12-17T14:54:29.114Z,-3.61
2022-12-17T14:56:58.500Z,-3.61
2022-12-17T14:59:31.730Z,-3.61
2022-12-17T15:02:01.820Z,-3.60
2022-12-17T15:04:31.346Z,-3.63
2022-12-17T15:07:00.039Z,-3.66
2022-12-17T15:09:29.631Z,-3.67
2022-12-17T15:11:57.563Z,-3.67
2022-12-17T15:14:25.514Z,-3.70
2022-12-17T15:16:53.617Z,-3.71
2022-12-17T15:19:22.507Z,-3.73
2022-12-17T15:21:50.512Z,-3.68
2022-12-17T15:24:21.528Z,-3.70
2022-12-17T15:26:50.971Z,-3.67
2022-12-17T15:29:19.095Z,-3.64
2022-12-17T15:31:47.318Z,-3.63
2022-12-17T15:34:15.322Z,-3.63
2022-12-17T15:36:43.296Z,-3.63
2022-12-17T15:39:11.823Z,-3.61
2022-12-17T15:41:57.220Z,-3.61
2022-12-17T15:44:26.509Z,-3.58
2022-12-17T15:46:54.522Z,-3.58
2022-12-17T15:49:22.802Z,-3.61
2022-12-17T15:51:50.795Z,-3.63
2022-12-17T15:54:18.775Z,-3.67
2022-12-17T15:56:53.554Z,-3.67
2022-12-17T15:59:21.625Z,-3.68
2022-12-17T16:01:51.051Z,-3.67
2022-12-17T16:04:24.639Z,-3.67
2022-12-17T16:06:53.311Z,-3.66
2022-12-17T16:09:24.336Z,-3.67
2022-12-17T16:11:54.261Z,-3.67
2022-12-17T16:14:22.341Z,-3.70
2022-12-17T16:16:52.305Z,-3.70
2022-12-17T16:19:20.366Z,-3.70
2022-12-17T16:21:48.326Z,-3.74
2022-12-17T16:24:16.295Z,-3.84
2022-12-17T16:26:44.303Z,-3.89
2022-12-17T16:29:12.409Z,-3.94
2022-12-17T16:31:40.610Z,-3.95
2022-12-17T16:34:10.707Z,-3.98
2022-12-17T16:36:38.681Z,-3.92
2022-12-17T16:39:06.932Z,-3.89
2022-12-17T16:41:35.254Z,-3.89
2022-12-17T16:44:03.772Z,-3.89
2022-12-17T16:46:32.927Z,-3.87
2022-12-17T16:49:06.380Z,-3.88
2022-12-17T16:51:36.162Z,-3.94
2022-12-17T16:54:06.223Z,-3.94
2022-12-17T16:56:39.643Z,-4.01
2022-12-17T16:59:09.514Z,-4.03
2022-12-17T17:01:38.795Z,-4.06
2022-12-17T17:04:07.736Z,-4.09
2022-12-17T17:06:40.306Z,-4.10
2022-12-17T17:09:08.718Z,-4.16
2022-12-17T17:11:36.965Z,-4.15
2022-12-17T17:14:06.624Z,-4.16
2022-12-17T17:16:35.116Z,-4.16
2022-12-17T17:19:04.351Z,-4.18
2022-12-17T17:21:34.250Z,-4.19
2022-12-17T17:24:05.039Z,-4.22
2022-12-17T17:26:33.916Z,-4.23
2022-12-17T17:29:02.606Z,-4.26
2022-12-17T17:34:18.883Z,-4.34
2022-12-17T17:36:46.971Z,-4.32
2022-12-17T17:39:16.263Z,-4.32
2022-12-17T17:41:44.217Z,-4.33
2022-12-17T17:44:13.811Z,-4.32
2022-12-17T17:46:42.735Z,-4.33
2022-12-17T17:49:11.845Z,-4.29
2022-12-17T17:54:31.785Z,-4.33
2022-12-17T17:56:59.723Z,-4.30
2022-12-17T17:59:33.381Z,-4.34
2022-12-17T18:02:02.996Z,-4.37
2022-12-17T18:04:32.259Z,-4.39
2022-12-17T18:09:49.658Z,-4.49
2022-12-17T18:12:35.631Z,-4.58
2022-12-17T18:15:19.105Z,-4.57
2022-12-17T18:17:48.595Z,-4.57
2022-12-17T18:20:17.192Z,-4.66
2022-12-17T18:22:46.833Z,-4.67
2022-12-17T18:25:16.904Z,-4.67
2022-12-17T18:27:45.006Z,-4.66
2022-12-17T18:30:14.107Z,-4.71
2022-12-17T18:32:42.194Z,-4.76
2022-12-17T18:35:10.750Z,-4.80
2022-12-17T18:37:38.994Z,-4.81
2022-12-17T18:40:08.321Z,-4.83
2022-12-17T18:42:55.399Z,-4.81
2022-12-17T18:45:23.527Z,-4.78
2022-12-17T18:47:51.815Z,-4.81
2022-12-17T18:50:19.968Z,-4.80
2022-12-17T18:52:47.951Z,-4.85
2022-12-17T18:55:16.352Z,-4.88
2022-12-17T18:57:45.728Z,-4.94
2022-12-17T19:00:15.330Z,-4.95
2022-12-17T19:02:44.327Z,-4.98
2022-12-17T19:05:12.554Z,-4.98
2022-12-17T19:07:40.544Z,-4.97
2022-12-17T19:10:09.489Z,-4.98
2022-12-17T19:12:37.586Z,-4.99
2022-12-17T19:15:08.137Z,-5.02
2022-12-17T19:17:36.102Z,-5.02
2022-12-17T19:20:04.203Z,-4.99
2022-12-17T19:22:32.246Z,-5.01
2022-12-17T19:25:00.228Z,-5.01
2022-12-17T19:27:28.833Z,-5.04
2022-12-17T19:29:57.160Z,-4.99
2022-12-17T19:32:26.571Z,-4.98
2022-12-17T19:34:54.566Z,-4.99
2022-12-17T19:37:22.610Z,-5.02
2022-12-17T19:39:50.850Z,-5.02
2022-12-17T19:42:34.978Z,-5.11
2022-12-17T19:45:05.205Z,-5.13
2022-12-17T19:47:34.760Z,-5.04
2022-12-17T19:50:02.794Z,-5.02
2022-12-17T19:52:30.808Z,-5.05
2022-12-17T19:54:58.829Z,-5.07
2022-12-17T19:57:26.774Z,-5.08
2022-12-17T19:59:54.714Z,-5.15
2022-12-17T20:02:24.063Z,-5.18
2022-12-17T20:04:55.281Z,-5.20
2022-12-17T20:07:23.245Z,-5.23
2022-12-17T20:09:51.178Z,-5.19
2022-12-17T20:12:19.154Z,-5.22
2022-12-17T20:14:47.208Z,-5.20
2022-12-17T20:17:15.163Z,-5.26
2022-12-17T20:19:43.594Z,-5.28
2022-12-17T20:22:12.937Z,-5.30
2022-12-17T20:24:40.990Z,-5.33
2022-12-17T20:27:09.020Z,-5.36
2022-12-17T20:29:37.023Z,-5.36
2022-12-17T20:32:05.432Z,-5.37
2022-12-17T20:34:33.629Z,-5.33
2022-12-17T20:37:01.613Z,-5.36
2022-12-17T20:39:32.144Z,-5.33
2022-12-17T20:42:00.148Z,-5.33
2022-12-17T20:44:28.868Z,-5.33
2022-12-17T20:46:56.875Z,-5.35
2022-12-17T20:49:24.839Z,-5.37
2022-12-17T20:51:52.844Z,-5.37
2022-12-17T20:54:21.790Z,-5.39
2022-12-17T20:56:51.150Z,-5.42
2022-12-17T20:59:20.279Z,-5.47
2022-12-17T21:01:54.278Z,-5.57
2022-12-17T21:04:24.799Z,-5.59
2022-12-17T21:06:53.128Z,-5.63
2022-12-17T21:09:22.531Z,-5.70
2022-12-17T21:11:52.000Z,-5.78
2022-12-17T21:14:20.458Z,-5.78
2022-12-17T21:16:49.353Z,-5.78
2022-12-17T21:19:20.113Z,-5.77
2022-12-17T21:21:48.337Z,-5.78
2022-12-17T21:24:16.390Z,-5.77
2022-12-17T21:26:45.940Z,-5.78
2022-12-17T21:29:15.668Z,-5.78
2022-12-17T21:31:45.813Z,-5.80
2022-12-17T21:34:17.306Z,-5.86
2022-12-17T21:36:46.386Z,-5.88
2022-12-17T21:39:15.439Z,-5.93
2022-12-17T21:42:07.771Z,-5.97
2022-12-17T21:44:37.605Z,-5.99
2022-12-17T21:47:05.721Z,-6.01
2022-12-17T21:49:34.070Z,-6.01
2022-12-17T21:52:02.889Z,-6.01
2022-12-17T21:54:31.023Z,-6.01
2022-12-17T21:56:59.149Z,-6.01
2022-12-17T21:59:27.213Z,-6.05
2022-12-17T22:01:57.516Z,-6.07
2022-12-17T22:04:26.241Z,-6.08
2022-12-17T22:07:02.310Z,-6.11
2022-12-17T22:09:57.195Z,-6.09
2022-12-17T22:12:44.495Z,-6.11
2022-12-17T22:15:13.001Z,-6.12
2022-12-17T22:17:43.389Z,-6.14
2022-12-17T22:20:12.348Z,-6.15
2022-12-17T22:22:40.381Z,-6.16
2022-12-17T22:25:11.407Z,-6.21
2022-12-17T22:27:40.721Z,-6.19
2022-12-17T22:30:30.172Z,-6.18
2022-12-17T22:33:05.619Z,-6.14
2022-12-17T22:37:12.696Z,-6.22
2022-12-17T22:42:42.966Z,-6.24
2022-12-17T22:44:36.591Z,-6.24
2022-12-17T22:44:51.894Z,-6.24
2022-12-17T22:47:19.493Z,-6.24
2022-12-17T22:49:49.700Z,-6.21
2022-12-17T22:52:18.122Z,-6.29
2022-12-17T22:54:47.349Z,-6.28
2022-12-17T22:57:34.393Z,-6.29
2022-12-17T23:00:05.657Z,-6.26
2022-12-17T23:02:33.771Z,-6.25
2022-12-17T23:05:03.121Z,-6.24
2022-12-17T23:07:32.125Z,-6.25
2022-12-17T23:10:00.330Z,-6.25
2022-12-17T23:12:46.245Z,-6.26
2022-12-17T23:15:14.272Z,-6.33
2022-12-17T23:17:42.352Z,-6.37
2022-12-17T23:20:12.728Z,-6.40
2022-12-17T23:22:40.968Z,-6.40
2022-12-17T23:25:09.747Z,-6.43
2022-12-17T23:27:38.323Z,-6.40
2022-12-17T23:30:07.520Z,-6.42
2022-12-17T23:32:35.744Z,-6.42
2022-12-17T23:35:03.987Z,-6.49
2022-12-17T23:37:39.384Z,-6.53
2022-12-17T23:40:13.341Z,-6.56
2022-12-17T23:42:41.404Z,-6.65
2022-12-17T23:45:11.424Z,-6.69
2022-12-17T23:47:40.039Z,-6.72
2022-12-17T23:50:09.693Z,-6.74
2022-12-17T23:52:39.912Z,-6.74
2022-12-17T23:55:08.487Z,-6.70
2022-12-17T23:57:36.496Z,-6.70
